LFRV 210400Z AUTO 01005KT CAVOK 00/M01 Q1037

ElémentsDécodage
LFRV Station météo située sur l'aérodrome de VANNES Meucon
210400Z émis le 21 du mois à 04h00 UTC
AUTO Bulletin édité par un automate
01005KT vent du 010°, 05 noeuds
CAVOK Ceiling And Visibility OK
- Visibilité de 10 Km ou plus
- Pas de nuage au-dessous de 1500m ou au-dessous de l'altitude minimale du secteur la plus élevée (si>1500m) et absence de CB
- pas de temps présent significatif
00/M01 température 00°C, point de rosée -01°C
 soit une humidité relative de 93%
Q1037 la pression au niveau de la mer (QNH) est de 1037 hPa